createdAt,value
2017-11-07T00:02:08.467Z,5.30
2017-11-07T00:04:36.037Z,6.47
2017-11-07T00:07:03.646Z,5.05
2017-11-07T00:09:31.205Z,5.82
2017-11-07T00:11:58.758Z,6.47
2017-11-07T00:14:27.115Z,6.40
2017-11-07T00:16:55.434Z,5.90
2017-11-07T00:19:23.023Z,7.40
2017-11-07T00:21:50.582Z,6.57
2017-11-07T00:24:18.174Z,6.72
2017-11-07T00:26:46.495Z,6.50
2017-11-07T00:29:14.494Z,6.72
2017-11-07T00:31:42.046Z,7.10
2017-11-07T00:34:09.594Z,5.82
2017-11-07T00:36:37.200Z,6.20
2017-11-07T00:39:04.771Z,6.40
2017-11-07T00:41:33.125Z,6.43
2017-11-07T00:44:00.678Z,6.93
2017-11-07T00:46:28.311Z,6.55
2017-11-07T00:48:55.911Z,7.30
2017-11-07T00:51:23.514Z,7.57
2017-11-07T00:53:51.086Z,6.93
2017-11-07T00:56:18.634Z,6.45
2017-11-07T00:58:46.224Z,6.30
2017-11-07T01:01:13.778Z,6.03
2017-11-07T01:03:41.368Z,6.37
2017-11-07T01:06:09.690Z,5.45
2017-11-07T01:08:37.283Z,6.22
2017-11-07T01:11:04.836Z,6.25
2017-11-07T01:13:32.407Z,7.15
2017-11-07T01:16:00.011Z,6.07
2017-11-07T01:18:28.340Z,6.25
2017-11-07T01:20:55.930Z,6.53
2017-11-07T01:23:23.490Z,6.05
2017-11-07T01:25:51.101Z,6.05
2017-11-07T01:28:18.671Z,7.05
2017-11-07T01:30:46.303Z,6.15
2017-11-07T01:33:14.658Z,6.57
2017-11-07T01:35:42.262Z,7.15
2017-11-07T01:38:09.818Z,7.20
2017-11-07T01:40:38.138Z,6.05
2017-11-07T01:43:05.727Z,7.28
2017-11-07T01:45:33.287Z,7.15
2017-11-07T01:48:00.887Z,6.37
2017-11-07T01:50:28.451Z,7.07
2017-11-07T01:52:55.993Z,6.55
2017-11-07T01:55:23.597Z,7.12
2017-11-07T01:57:51.151Z,7.07
2017-11-07T02:00:18.703Z,6.15
2017-11-07T02:02:46.317Z,6.50
2017-11-07T02:05:13.931Z,6.37
2017-11-07T02:07:41.490Z,7.20
2017-11-07T02:10:09.051Z,8.00
2017-11-07T02:12:36.643Z,6.15
2017-11-07T02:15:04.201Z,6.75
2017-11-07T02:17:31.786Z,6.85
2017-11-07T02:20:00.104Z,6.20
2017-11-07T02:22:27.686Z,7.30
2017-11-07T02:24:55.255Z,6.43
2017-11-07T02:27:22.835Z,7.45
2017-11-07T02:29:50.377Z,7.35
2017-11-07T02:32:17.957Z,6.55
2017-11-07T02:34:46.313Z,7.43
2017-11-07T02:37:13.890Z,7.20
2017-11-07T02:39:41.444Z,7.62
2017-11-07T02:42:09.025Z,6.03
2017-11-07T02:44:37.406Z,7.35
2017-11-07T02:47:05.762Z,7.12
2017-11-07T02:49:33.320Z,6.65
2017-11-07T02:52:00.903Z,7.10
2017-11-07T02:54:29.222Z,7.30
2017-11-07T02:56:56.810Z,6.50
2017-11-07T02:59:24.360Z,6.68
2017-11-07T03:01:51.948Z,7.47
2017-11-07T03:04:19.493Z,7.45
2017-11-07T03:06:47.074Z,7.10
2017-11-07T03:09:14.673Z,7.55
2017-11-07T03:11:42.234Z,8.30
2017-11-07T03:14:09.795Z,6.85
2017-11-07T03:16:37.382Z,8.00
2017-11-07T03:19:04.971Z,7.15
2017-11-07T03:21:32.538Z,8.65
2017-11-07T03:24:00.142Z,9.30
2017-11-07T03:26:27.699Z,7.78
2017-11-07T03:28:55.284Z,8.02
2017-11-07T03:31:22.882Z,8.48
2017-11-07T03:33:50.425Z,9.07
2017-11-07T03:36:17.971Z,9.90
2017-11-07T03:38:45.565Z,9.43
2017-11-07T03:41:13.944Z,9.35
2017-11-07T03:43:42.278Z,9.68
2017-11-07T03:46:09.838Z,8.63
2017-11-07T03:48:37.430Z,11.50
2017-11-07T03:51:04.985Z,10.77
2017-11-07T03:53:32.579Z,9.60
2017-11-07T03:56:00.901Z,10.88
2017-11-07T03:58:28.515Z,10.82
2017-11-07T04:00:56.894Z,10.93
2017-11-07T04:03:25.215Z,10.10
2017-11-07T04:05:52.774Z,12.65
2017-11-07T04:08:20.374Z,10.57
2017-11-07T04:10:47.935Z,11.70
2017-11-07T04:13:15.492Z,11.10
2017-11-07T04:15:43.083Z,11.80
2017-11-07T04:18:11.403Z,10.57
2017-11-07T04:20:39.020Z,10.88
2017-11-07T04:23:07.342Z,10.85
2017-11-07T04:25:34.903Z,10.60
2017-11-07T04:28:02.509Z,11.05
2017-11-07T04:30:30.830Z,11.85
2017-11-07T04:32:58.390Z,12.18
2017-11-07T04:35:25.990Z,10.80
2017-11-07T04:37:53.543Z,11.60
2017-11-07T04:40:21.138Z,11.30
2017-11-07T04:42:49.463Z,10.35
2017-11-07T04:45:17.026Z,11.27
2017-11-07T04:47:44.614Z,11.02
2017-11-07T04:50:12.501Z,11.73
2017-11-07T04:52:40.118Z,12.25
2017-11-07T04:55:07.703Z,12.23
2017-11-07T04:57:35.310Z,10.73
2017-11-07T05:00:02.911Z,11.82
2017-11-07T05:02:30.466Z,12.00
2017-11-07T05:04:58.093Z,12.35
2017-11-07T05:07:25.678Z,11.93
2017-11-07T05:09:53.254Z,14.05
2017-11-07T05:12:20.882Z,11.73
2017-11-07T05:14:48.453Z,13.82
2017-11-07T05:17:16.056Z,13.20
2017-11-07T05:19:43.680Z,12.65
2017-11-07T05:22:11.290Z,14.50
2017-11-07T05:24:39.615Z,12.23
2017-11-07T05:27:07.174Z,13.88
2017-11-07T05:29:34.765Z,13.00
2017-11-07T05:32:02.334Z,14.45
2017-11-07T05:34:29.927Z,13.85
2017-11-07T05:36:57.516Z,12.77
2017-11-07T05:39:25.115Z,13.77
2017-11-07T05:41:53.294Z,14.35
2017-11-07T05:44:21.663Z,15.13
2017-11-07T05:46:49.236Z,14.95
2017-11-07T05:49:17.632Z,16.90
2017-11-07T05:51:45.966Z,14.18
2017-11-07T05:54:13.526Z,15.48
2017-11-07T05:56:41.127Z,16.17
2017-11-07T05:59:09.444Z,14.20
2017-11-07T06:01:37.049Z,14.20
2017-11-07T06:04:04.606Z,13.38
2017-11-07T06:06:32.165Z,15.48
2017-11-07T06:08:59.813Z,17.92
2017-11-07T06:11:27.433Z,15.80
2017-11-07T06:13:54.987Z,16.12
2017-11-07T06:16:22.561Z,15.40
2017-11-07T06:18:50.161Z,16.10
2017-11-07T06:21:17.713Z,14.80
2017-11-07T06:23:45.349Z,16.42
2017-11-07T06:26:12.919Z,15.98
2017-11-07T06:28:40.509Z,16.70
2017-11-07T06:31:08.108Z,17.52
2017-11-07T06:33:35.708Z,16.48
2017-11-07T06:36:03.272Z,15.13
2017-11-07T06:38:30.899Z,17.58
2017-11-07T06:40:58.460Z,17.25
2017-11-07T06:43:26.016Z,16.48
2017-11-07T06:45:53.606Z,15.88
2017-11-07T06:48:21.166Z,16.60
2017-11-07T06:50:48.774Z,17.40
2017-11-07T06:53:17.106Z,19.33
2017-11-07T06:55:44.663Z,16.67
2017-11-07T06:58:12.290Z,17.73
2017-11-07T07:00:40.618Z,17.02
2017-11-07T07:03:08.232Z,17.95
2017-11-07T07:05:35.809Z,17.30
2017-11-07T07:08:03.373Z,16.73
2017-11-07T07:10:30.957Z,17.90
2017-11-07T07:12:58.542Z,17.85
2017-11-07T07:15:26.106Z,16.92
2017-11-07T07:17:53.748Z,17.65
2017-11-07T07:20:21.354Z,19.50
2017-11-07T07:22:49.674Z,18.08
2017-11-07T07:25:17.278Z,18.20
2017-11-07T07:27:45.643Z,19.05
2017-11-07T07:30:13.215Z,18.42
2017-11-07T07:32:40.909Z,17.80
2017-11-07T07:35:08.562Z,20.70
2017-11-07T07:37:36.922Z,23.73
2017-11-07T07:40:04.530Z,19.12
2017-11-07T07:42:32.121Z,18.00
2017-11-07T07:44:59.740Z,17.75
2017-11-07T07:47:27.315Z,18.65
2017-11-07T07:49:54.869Z,18.40
2017-11-07T07:52:22.457Z,18.45
2017-11-07T07:54:50.050Z,18.60
2017-11-07T07:57:18.429Z,17.87
2017-11-07T08:00:08.974Z,16.52
2017-11-07T08:02:37.709Z,18.00
2017-11-07T08:05:06.046Z,21.77
2017-11-07T08:07:33.639Z,16.67
2017-11-07T08:10:01.235Z,16.70
2017-11-07T08:12:29.623Z,16.48
2017-11-07T08:14:57.178Z,18.33
2017-11-07T08:17:24.736Z,17.17
2017-11-07T08:19:53.102Z,20.42
2017-11-07T08:22:21.420Z,20.77
2017-11-07T08:25:12.608Z,16.15
2017-11-07T08:27:49.765Z,20.02
2017-11-07T08:30:39.188Z,18.12
2017-11-07T08:33:07.091Z,16.58
2017-11-07T08:35:34.654Z,17.12
2017-11-07T08:38:02.278Z,18.30
2017-11-07T08:40:29.871Z,24.10
2017-11-07T08:42:57.476Z,16.55
2017-11-07T08:45:25.807Z,17.58
2017-11-07T08:47:53.396Z,18.70
2017-11-07T08:50:22.047Z,17.92
2017-11-07T08:52:49.618Z,17.50
2017-11-07T08:55:17.235Z,16.75
2017-11-07T08:57:44.872Z,17.35
2017-11-07T09:00:13.223Z,19.73
2017-11-07T09:02:40.814Z,18.42
2017-11-07T09:05:09.321Z,16.85
2017-11-07T09:07:36.976Z,16.50
2017-11-07T09:10:04.539Z,19.67
2017-11-07T09:12:32.181Z,18.85
2017-11-07T09:14:59.870Z,17.52
2017-11-07T09:17:27.450Z,17.42
2017-11-07T09:19:55.085Z,17.23
2017-11-07T09:22:22.671Z,16.25
2017-11-07T09:24:50.789Z,17.42
2017-11-07T09:27:18.386Z,17.83
2017-11-07T09:29:45.978Z,16.20
2017-11-07T09:32:13.776Z,17.15
2017-11-07T09:34:41.366Z,17.65
2017-11-07T09:37:08.922Z,16.33
2017-11-07T09:39:36.522Z,16.95
2017-11-07T09:42:04.077Z,20.90
2017-11-07T09:44:31.635Z,16.67
2017-11-07T09:46:59.281Z,16.65
2017-11-07T09:49:27.171Z,19.27
2017-11-07T09:51:54.949Z,16.45
2017-11-07T09:54:24.506Z,17.33
2017-11-07T09:56:52.907Z,16.05
2017-11-07T09:59:20.510Z,16.55
2017-11-07T10:01:48.085Z,17.75
2017-11-07T10:04:15.799Z,17.20
2017-11-07T10:06:43.432Z,15.70
2017-11-07T10:09:11.038Z,16.35
2017-11-07T10:11:38.843Z,18.95
2017-11-07T10:14:07.224Z,17.73
2017-11-07T10:16:35.774Z,18.25
2017-11-07T10:19:03.378Z,20.00
2017-11-07T10:21:31.798Z,15.73
2017-11-07T10:23:59.401Z,23.27
2017-11-07T10:26:27.076Z,17.75
2017-11-07T10:28:54.671Z,16.90
2017-11-07T10:31:22.312Z,15.70
2017-11-07T10:33:50.658Z,16.30
2017-11-07T10:36:19.077Z,16.73
2017-11-07T10:38:46.666Z,18.30
2017-11-07T10:41:14.309Z,18.80
2017-11-07T10:43:41.924Z,16.52
2017-11-07T10:46:09.979Z,15.68
2017-11-07T10:48:38.048Z,18.50
2017-11-07T10:51:06.085Z,16.83
2017-11-07T10:53:36.765Z,15.73
2017-11-07T10:56:04.738Z,16.70
2017-11-07T10:58:33.367Z,15.98
2017-11-07T11:01:02.253Z,16.45
2017-11-07T11:03:30.257Z,17.58
2017-11-07T11:05:59.037Z,17.60
2017-11-07T11:08:27.471Z,17.20
2017-11-07T11:10:56.127Z,16.90
2017-11-07T11:13:23.812Z,17.73
2017-11-07T11:15:52.262Z,16.48
2017-11-07T11:18:20.124Z,16.17
2017-11-07T11:20:47.706Z,17.37
2017-11-07T11:23:15.301Z,16.33
2017-11-07T11:25:43.631Z,16.52
2017-11-07T11:28:11.236Z,16.33
2017-11-07T11:30:39.558Z,16.90
2017-11-07T11:33:07.174Z,16.70
2017-11-07T11:35:35.805Z,18.33
2017-11-07T11:38:04.208Z,17.12
2017-11-07T11:40:31.881Z,17.75
2017-11-07T11:43:00.130Z,16.40
2017-11-07T11:45:27.777Z,17.48
2017-11-07T11:47:55.349Z,18.33
2017-11-07T11:50:22.977Z,17.80
2017-11-07T11:52:51.325Z,17.23
2017-11-07T11:55:18.908Z,16.67
2017-11-07T11:57:47.318Z,15.57
2017-11-07T12:00:15.012Z,18.52
2017-11-07T12:02:42.582Z,15.90
2017-11-07T12:05:10.197Z,17.80
2017-11-07T12:07:38.076Z,17.37
2017-11-07T12:10:05.672Z,16.50
2017-11-07T12:12:33.293Z,19.08
2017-11-07T12:15:01.410Z,18.23
2017-11-07T12:17:30.274Z,16.10
2017-11-07T12:19:57.958Z,18.85
2017-11-07T12:22:26.350Z,17.95
2017-11-07T12:24:54.864Z,16.95
2017-11-07T12:27:22.485Z,19.65
2017-11-07T12:29:50.050Z,16.73
2017-11-07T12:32:17.726Z,22.60
2017-11-07T12:34:45.322Z,17.20
2017-11-07T12:37:12.934Z,17.50
2017-11-07T12:39:40.503Z,18.02
2017-11-07T12:42:08.924Z,17.52
2017-11-07T12:44:36.485Z,16.42
2017-11-07T12:47:04.089Z,15.40
2017-11-07T12:49:31.752Z,17.73
2017-11-07T12:52:00.203Z,19.00
2017-11-07T12:54:27.790Z,16.52
2017-11-07T12:56:55.398Z,18.80
2017-11-07T12:59:22.958Z,18.90
2017-11-07T13:01:51.354Z,43.85
2017-11-07T13:04:18.958Z,17.73
2017-11-07T13:06:46.609Z,19.02
2017-11-07T13:09:14.343Z,17.70
2017-11-07T13:11:41.946Z,17.30
2017-11-07T13:14:09.558Z,18.65
2017-11-07T13:16:37.284Z,18.10
2017-11-07T13:19:05.684Z,16.77
2017-11-07T13:21:34.021Z,18.12
2017-11-07T13:24:01.583Z,16.52
2017-11-07T13:26:29.345Z,20.12
2017-11-07T13:28:57.757Z,17.62
2017-11-07T13:31:25.372Z,19.23
2017-11-07T13:33:54.046Z,18.02
2017-11-07T13:36:21.609Z,18.85
2017-11-07T13:38:49.247Z,20.67
2017-11-07T13:41:17.590Z,19.70
2017-11-07T13:43:45.261Z,18.58
2017-11-07T13:46:12.834Z,17.27
2017-11-07T13:48:41.259Z,17.95
2017-11-07T13:51:08.825Z,18.25
2017-11-07T13:53:36.422Z,19.30
2017-11-07T13:56:04.527Z,17.87
2017-11-07T13:58:32.166Z,17.02
2017-11-07T14:01:18.842Z,18.20
2017-11-07T14:03:48.523Z,17.75
2017-11-07T14:06:16.160Z,17.27
2017-11-07T14:08:44.510Z,18.92
2017-11-07T14:11:12.399Z,21.00
2017-11-07T14:13:40.779Z,17.48
2017-11-07T14:16:09.183Z,17.62
2017-11-07T14:18:36.867Z,16.95
2017-11-07T14:21:04.503Z,17.35
2017-11-07T14:23:32.757Z,16.60
2017-11-07T14:26:01.094Z,16.83
2017-11-07T14:28:28.741Z,18.02
2017-11-07T14:30:56.313Z,17.25
2017-11-07T14:33:23.942Z,17.33
2017-11-07T14:35:51.570Z,16.95
2017-11-07T14:38:19.919Z,18.00
2017-11-07T14:40:47.507Z,17.80
2017-11-07T14:43:15.138Z,19.12
2017-11-07T14:45:42.701Z,19.25
2017-11-07T14:48:10.319Z,19.67
2017-11-07T14:50:38.819Z,17.98
2017-11-07T14:53:06.546Z,20.30
2017-11-07T14:55:47.760Z,18.35
2017-11-07T14:58:36.602Z,18.30
2017-11-07T15:01:06.794Z,18.65
2017-11-07T15:03:34.562Z,16.95
2017-11-07T15:06:02.294Z,17.02
2017-11-07T15:08:29.960Z,18.02
2017-11-07T15:10:57.674Z,20.23
2017-11-07T15:13:26.105Z,19.08
2017-11-07T15:15:53.737Z,17.60
2017-11-07T15:18:21.379Z,15.63
2017-11-07T15:20:48.958Z,17.30
2017-11-07T15:23:16.687Z,17.15
2017-11-07T15:25:44.326Z,17.35
2017-11-07T15:28:12.817Z,17.67
2017-11-07T15:30:41.129Z,16.75
2017-11-07T15:33:09.574Z,18.40
2017-11-07T15:35:37.302Z,18.27
2017-11-07T15:38:04.865Z,15.98
2017-11-07T15:40:32.482Z,14.80
2017-11-07T15:43:00.291Z,16.73
2017-11-07T15:45:27.881Z,16.02
2017-11-07T15:47:56.116Z,16.45
2017-11-07T15:50:23.763Z,17.40
2017-11-07T15:52:52.098Z,17.67
2017-11-07T15:55:19.658Z,17.02
2017-11-07T15:57:47.257Z,16.80
2017-11-07T16:00:15.663Z,17.27
2017-11-07T16:02:43.310Z,17.05
2017-11-07T16:05:11.878Z,16.27
2017-11-07T16:07:40.210Z,16.42
2017-11-07T16:10:07.770Z,17.12
2017-11-07T16:12:41.071Z,17.62
2017-11-07T16:15:10.117Z,16.77
2017-11-07T16:17:38.607Z,19.62
2017-11-07T16:20:06.221Z,24.50
2017-11-07T16:22:33.788Z,22.13
2017-11-07T16:25:01.410Z,19.62
2017-11-07T16:27:29.011Z,20.45
2017-11-07T16:29:56.606Z,19.73
2017-11-07T16:32:24.985Z,19.33
2017-11-07T16:34:53.362Z,17.65
2017-11-07T16:37:21.696Z,19.05
2017-11-07T16:39:49.249Z,18.67
2017-11-07T16:42:16.837Z,19.95
2017-11-07T16:44:44.437Z,20.00
2017-11-07T16:47:12.022Z,21.17
2017-11-07T16:49:40.351Z,22.00
2017-11-07T16:52:08.714Z,21.33
2017-11-07T16:54:36.269Z,23.70
2017-11-07T16:57:03.880Z,20.60
2017-11-07T16:59:31.473Z,21.33
2017-11-07T17:01:59.165Z,18.95
2017-11-07T17:04:27.510Z,19.70
2017-11-07T17:06:55.077Z,20.65
2017-11-07T17:09:23.951Z,18.40
2017-11-07T17:11:54.210Z,20.42
2017-11-07T17:14:23.458Z,20.95
2017-11-07T17:16:53.097Z,21.73
2017-11-07T17:19:23.262Z,22.60
2017-11-07T17:21:55.640Z,22.60
2017-11-07T17:24:25.998Z,20.48
2017-11-07T17:26:56.297Z,20.95
2017-11-07T17:29:27.735Z,19.33
2017-11-07T17:31:59.310Z,21.98
2017-11-07T17:34:31.911Z,20.60
2017-11-07T17:37:03.573Z,21.65
2017-11-07T17:39:33.034Z,22.85
2017-11-07T17:42:02.965Z,20.77
2017-11-07T17:44:33.301Z,21.52
2017-11-07T17:47:02.584Z,23.52
2017-11-07T17:49:32.993Z,20.77
2017-11-07T17:52:02.167Z,21.70
2017-11-07T17:54:32.660Z,23.80
2017-11-07T17:57:03.435Z,21.17
2017-11-07T17:59:32.829Z,22.40
2017-11-07T18:02:02.622Z,20.98
2017-11-07T18:04:35.813Z,22.77
2017-11-07T18:07:05.493Z,23.77
2017-11-07T18:09:36.069Z,22.48
2017-11-07T18:12:05.976Z,22.35
2017-11-07T18:14:37.328Z,23.25
2017-11-07T18:17:11.555Z,24.90
2017-11-07T18:19:41.096Z,25.98
2017-11-07T18:22:10.910Z,24.40
2017-11-07T18:24:41.244Z,23.90
2017-11-07T18:27:21.261Z,23.00
2017-11-07T18:29:51.059Z,25.45
2017-11-07T18:32:20.906Z,24.83
2017-11-07T18:34:52.551Z,27.20
2017-11-07T18:37:22.278Z,25.37
2017-11-07T18:39:51.826Z,23.35
2017-11-07T18:42:21.618Z,25.15
2017-11-07T18:44:51.443Z,24.65
2017-11-07T18:47:21.129Z,24.33
2017-11-07T18:49:52.596Z,24.52
2017-11-07T18:52:22.692Z,26.20
2017-11-07T18:54:53.492Z,23.58
2017-11-07T18:57:31.220Z,26.48
2017-11-07T19:00:01.113Z,23.02
2017-11-07T19:02:30.789Z,24.40
2017-11-07T19:05:00.926Z,24.85
2017-11-07T19:07:30.858Z,23.98
2017-11-07T19:10:08.216Z,24.52
2017-11-07T19:12:42.914Z,25.35
2017-11-07T19:15:14.594Z,24.67
2017-11-07T19:17:44.252Z,24.23
2017-11-07T19:20:14.587Z,23.67
2017-11-07T19:22:51.613Z,24.85
2017-11-07T19:25:21.302Z,25.83
2017-11-07T19:27:51.773Z,25.27
2017-11-07T19:30:21.310Z,24.90
2017-11-07T19:32:51.083Z,26.37
2017-11-07T19:35:20.844Z,23.35
2017-11-07T19:37:50.669Z,26.05
2017-11-07T19:40:21.315Z,25.17
2017-11-07T19:42:51.611Z,28.52
2017-11-07T19:45:21.584Z,24.90
2017-11-07T19:47:51.288Z,23.40
2017-11-07T19:50:20.720Z,26.23
2017-11-07T19:52:51.362Z,26.17
2017-11-07T19:55:20.717Z,24.73
2017-11-07T19:57:50.886Z,25.42
2017-11-07T20:00:20.656Z,24.17
2017-11-07T20:02:50.376Z,25.20
2017-11-07T20:05:20.292Z,23.67
2017-11-07T20:07:52.085Z,25.67
2017-11-07T20:10:22.144Z,24.25
2017-11-07T20:12:51.542Z,23.38
2017-11-07T20:15:22.953Z,25.23
2017-11-07T20:17:52.396Z,26.48
2017-11-07T20:20:22.649Z,23.42
2017-11-07T20:22:52.608Z,24.23
2017-11-07T20:25:22.260Z,26.25
2017-11-07T20:27:51.597Z,25.27
2017-11-07T20:30:21.332Z,23.62
2017-11-07T20:32:51.056Z,26.58
2017-11-07T20:35:21.643Z,25.45
2017-11-07T20:37:51.208Z,27.05
2017-11-07T20:40:21.633Z,25.45
2017-11-07T20:42:51.046Z,26.00
2017-11-07T20:45:20.461Z,25.45
2017-11-07T20:47:48.875Z,25.02
2017-11-07T20:50:18.243Z,25.88
2017-11-07T20:52:47.252Z,24.08
2017-11-07T20:55:16.182Z,27.48
2017-11-07T20:57:43.767Z,26.20
2017-11-07T21:00:12.151Z,26.92
2017-11-07T21:02:40.471Z,26.20
2017-11-07T21:05:10.301Z,27.02
2017-11-07T21:07:37.893Z,26.67
2017-11-07T21:10:06.317Z,25.45
2017-11-07T21:12:33.881Z,25.65
2017-11-07T21:15:01.450Z,23.52
2017-11-07T21:17:29.071Z,25.85
2017-11-07T21:19:57.403Z,25.83
2017-11-07T21:22:24.968Z,24.80
2017-11-07T21:24:52.564Z,26.33
2017-11-07T21:27:20.925Z,25.88
2017-11-07T21:29:48.510Z,26.90
2017-11-07T21:32:16.886Z,26.08
2017-11-07T21:34:47.145Z,24.58
2017-11-07T21:37:14.705Z,26.50
2017-11-07T21:39:42.306Z,26.25
2017-11-07T21:42:09.861Z,26.52
2017-11-07T21:44:37.429Z,26.45
2017-11-07T21:47:05.023Z,26.48
2017-11-07T21:49:32.645Z,24.80
2017-11-07T21:52:00.198Z,24.48
2017-11-07T21:54:27.805Z,25.25
2017-11-07T21:56:55.429Z,27.20
2017-11-07T21:59:22.979Z,28.58
2017-11-07T22:01:50.583Z,27.42
2017-11-07T22:04:18.934Z,25.88
2017-11-07T22:06:46.532Z,26.92
2017-11-07T22:09:14.129Z,26.48
2017-11-07T22:11:41.734Z,26.40
2017-11-07T22:14:10.075Z,28.27
2017-11-07T22:16:53.490Z,26.75
2017-11-07T22:19:21.054Z,28.87
2017-11-07T22:21:49.511Z,27.33
2017-11-07T22:24:17.099Z,25.80
2017-11-07T22:26:44.685Z,27.02
2017-11-07T22:29:12.305Z,27.90
2017-11-07T22:31:39.860Z,25.60
2017-11-07T22:34:07.410Z,24.45
2017-11-07T22:36:35.010Z,27.15
2017-11-07T22:39:02.570Z,26.23
2017-11-07T22:41:30.178Z,27.85
2017-11-07T22:43:58.513Z,28.10
2017-11-07T22:46:26.070Z,28.17
2017-11-07T22:48:54.450Z,26.50
2017-11-07T22:51:22.042Z,27.60
2017-11-07T22:53:50.383Z,25.90
2017-11-07T22:56:17.969Z,27.48
2017-11-07T22:58:45.535Z,27.42
2017-11-07T23:01:13.142Z,26.55
2017-11-07T23:03:40.725Z,27.20
2017-11-07T23:06:08.339Z,27.55
2017-11-07T23:08:36.664Z,27.35
2017-11-07T23:11:04.214Z,27.17
2017-11-07T23:13:31.798Z,28.02
2017-11-07T23:15:59.361Z,26.42
2017-11-07T23:18:26.962Z,27.87
2017-11-07T23:20:55.346Z,27.77
2017-11-07T23:23:22.907Z,27.17
2017-11-07T23:25:50.466Z,27.90
2017-11-07T23:28:18.061Z,26.45
2017-11-07T23:30:46.400Z,28.70
2017-11-07T23:33:14.748Z,26.70
2017-11-07T23:35:42.343Z,28.40
2017-11-07T23:38:10.658Z,25.02
2017-11-07T23:40:38.250Z,27.95
2017-11-07T23:43:05.820Z,28.00
2017-11-07T23:45:33.399Z,26.65
2017-11-07T23:48:01.022Z,27.42
2017-11-07T23:50:28.619Z,28.48
2017-11-07T23:52:56.979Z,27.13
2017-11-07T23:55:24.529Z,27.42
2017-11-07T23:57:52.148Z,29.05
